createdAt,value
2022-08-19T00:01:59.402Z,100.00
2022-08-19T00:04:33.753Z,100.00
2022-08-19T00:07:00.917Z,100.00
2022-08-19T00:09:28.917Z,100.00
2022-08-19T00:11:56.601Z,100.00
2022-08-19T00:14:24.937Z,100.00
2022-08-19T00:16:55.136Z,100.00
2022-08-19T00:19:22.700Z,100.00
2022-08-19T00:21:49.253Z,100.00
2022-08-19T00:24:16.599Z,100.00
2022-08-19T00:26:44.898Z,100.00
2022-08-19T00:29:15.312Z,100.00
2022-08-19T00:31:43.752Z,100.00
2022-08-19T00:34:11.438Z,100.00
2022-08-19T00:36:38.652Z,100.00
2022-08-19T00:39:05.716Z,100.00
2022-08-19T00:41:32.276Z,100.00
2022-08-19T00:44:21.307Z,100.00
2022-08-19T00:46:58.449Z,100.00
2022-08-19T00:49:28.272Z,100.00
2022-08-19T00:52:02.307Z,100.00
2022-08-19T00:54:32.433Z,100.00
2022-08-19T00:57:00.605Z,100.00
2022-08-19T00:59:56.208Z,100.00
2022-08-19T01:02:17.625Z,100.00
2022-08-19T01:04:44.064Z,100.00
2022-08-19T01:07:10.651Z,100.00
2022-08-19T01:09:41.678Z,100.00
2022-08-19T01:12:09.582Z,100.00
2022-08-19T01:14:39.750Z,100.00
2022-08-19T01:17:08.414Z,100.00
2022-08-19T01:19:43.645Z,100.00
2022-08-19T01:22:28.702Z,100.00
2022-08-19T01:24:57.590Z,99.57
2022-08-19T01:27:25.986Z,100.00
2022-08-19T01:29:52.462Z,100.00
2022-08-19T01:32:32.099Z,100.00
2022-08-19T01:35:02.509Z,100.00
2022-08-19T01:37:30.365Z,100.00
2022-08-19T01:39:57.157Z,100.00
2022-08-19T01:42:30.525Z,100.00
2022-08-19T01:44:57.596Z,100.00
2022-08-19T01:47:24.070Z,100.00
2022-08-19T01:49:50.519Z,100.00
2022-08-19T01:52:17.025Z,99.10
2022-08-19T01:54:43.468Z,99.75
2022-08-19T01:57:13.519Z,99.58
2022-08-19T01:59:42.003Z,99.91
2022-08-19T02:02:09.397Z,99.74
2022-08-19T02:04:38.612Z,99.54
2022-08-19T02:07:06.197Z,100.00
2022-08-19T02:09:33.608Z,100.00
2022-08-19T02:12:00.246Z,100.00
2022-08-19T02:14:26.756Z,100.00
2022-08-19T02:16:53.275Z,100.00
2022-08-19T02:19:19.726Z,100.00
2022-08-19T02:21:46.343Z,99.79
2022-08-19T02:24:13.339Z,100.00
2022-08-19T02:26:40.538Z,100.00
2022-08-19T02:29:07.067Z,100.00
2022-08-19T02:31:34.185Z,100.00
2022-08-19T02:34:01.705Z,100.00
2022-08-19T02:36:28.858Z,100.00
2022-08-19T02:38:56.789Z,100.00
2022-08-19T02:41:27.265Z,100.00
2022-08-19T02:44:22.985Z,99.99
2022-08-19T02:46:42.113Z,100.00
2022-08-19T02:49:09.032Z,99.81
2022-08-19T02:51:43.506Z,99.93
2022-08-19T02:54:13.450Z,99.67
2022-08-19T02:56:42.135Z,99.77
2022-08-19T02:59:12.027Z,99.91
2022-08-19T03:01:40.815Z,100.00
2022-08-19T03:04:09.023Z,100.00
2022-08-19T03:06:38.315Z,100.00
2022-08-19T03:09:04.895Z,99.89
2022-08-19T03:11:33.036Z,100.00
2022-08-19T03:14:01.026Z,100.00
2022-08-19T03:16:29.860Z,100.00
2022-08-19T03:19:01.864Z,100.00
2022-08-19T03:21:32.264Z,100.00
2022-08-19T03:24:02.986Z,100.00
2022-08-19T03:26:30.563Z,100.00
2022-08-19T03:28:58.143Z,100.00
2022-08-19T03:31:44.794Z,100.00
2022-08-19T03:34:27.211Z,100.00
2022-08-19T03:36:59.547Z,100.00
2022-08-19T03:39:26.133Z,100.00
2022-08-19T03:42:29.273Z,100.00
2022-08-19T03:44:43.156Z,100.00
2022-08-19T03:47:09.599Z,100.00
2022-08-19T03:49:36.856Z,100.00
2022-08-19T03:52:06.512Z,100.00
2022-08-19T03:54:33.268Z,100.00
2022-08-19T03:57:00.363Z,100.00
2022-08-19T03:59:29.481Z,100.00
2022-08-19T04:01:58.865Z,100.00
2022-08-19T04:04:29.005Z,100.00
2022-08-19T04:06:56.922Z,100.00
2022-08-19T04:09:23.966Z,100.00
2022-08-19T04:11:54.755Z,100.00
2022-08-19T04:14:29.385Z,100.00
2022-08-19T04:16:56.584Z,100.00
2022-08-19T04:19:24.161Z,100.00
2022-08-19T04:21:53.516Z,100.00
2022-08-19T04:24:21.255Z,99.85
2022-08-19T04:26:48.748Z,100.00
2022-08-19T04:29:19.633Z,100.00
2022-08-19T04:31:46.456Z,100.00
2022-08-19T04:34:15.231Z,99.97
2022-08-19T04:36:45.631Z,99.74
2022-08-19T04:39:16.545Z,99.87
2022-08-19T04:42:02.293Z,98.86
2022-08-19T04:44:31.567Z,99.41
2022-08-19T04:47:00.390Z,99.22
2022-08-19T04:49:28.354Z,99.47
2022-08-19T04:51:55.679Z,99.62
2022-08-19T04:54:38.379Z,100.00
2022-08-19T04:57:07.915Z,99.30
2022-08-19T04:59:35.559Z,99.65
2022-08-19T05:02:02.092Z,100.00
2022-08-19T05:04:33.727Z,100.00
2022-08-19T05:07:01.898Z,100.00
2022-08-19T05:09:33.064Z,100.00
2022-08-19T05:12:16.877Z,100.00
2022-08-19T05:14:44.306Z,100.00
2022-08-19T05:17:27.277Z,100.00
2022-08-19T05:20:14.407Z,100.00
2022-08-19T05:22:42.663Z,99.82
2022-08-19T05:25:13.993Z,99.50
2022-08-19T05:27:42.617Z,98.62
2022-08-19T05:30:10.365Z,97.50
2022-08-19T05:32:37.109Z,97.41
2022-08-19T05:35:04.553Z,96.10
2022-08-19T05:37:31.015Z,97.03
2022-08-19T05:39:57.523Z,96.40
2022-08-19T05:42:24.412Z,97.24
2022-08-19T05:44:52.080Z,97.29
2022-08-19T05:47:20.874Z,97.67
2022-08-19T05:49:48.623Z,97.19
2022-08-19T05:52:18.541Z,97.92
2022-08-19T05:54:48.621Z,97.26
2022-08-19T05:57:19.627Z,97.01
2022-08-19T05:59:57.631Z,97.15
2022-08-19T06:02:25.873Z,96.96
2022-08-19T06:04:52.455Z,96.36
2022-08-19T06:07:18.942Z,95.95
2022-08-19T06:09:59.181Z,97.25
2022-08-19T06:12:29.675Z,97.51
2022-08-19T06:15:01.060Z,96.99
2022-08-19T06:17:31.586Z,96.31
2022-08-19T06:19:59.283Z,95.99
2022-08-19T06:22:25.865Z,96.09
2022-08-19T06:24:54.827Z,96.02
2022-08-19T06:27:22.361Z,96.29
2022-08-19T06:29:49.027Z,96.33
2022-08-19T06:32:17.414Z,96.31
2022-08-19T06:34:43.981Z,95.49
2022-08-19T06:37:10.467Z,95.94
2022-08-19T06:39:39.595Z,95.67
2022-08-19T06:42:10.327Z,95.21
2022-08-19T06:44:43.162Z,95.34
2022-08-19T06:47:23.860Z,94.64
2022-08-19T06:50:03.303Z,94.19
2022-08-19T06:52:34.268Z,92.76
2022-08-19T06:55:02.282Z,91.83
2022-08-19T06:57:33.718Z,91.81
2022-08-19T07:00:01.041Z,91.47
2022-08-19T07:02:27.660Z,89.98
2022-08-19T07:04:54.494Z,89.36
2022-08-19T07:07:23.171Z,89.06
2022-08-19T07:09:58.287Z,88.63
2022-08-19T07:12:31.069Z,88.85
2022-08-19T07:14:58.905Z,88.25
2022-08-19T07:17:26.054Z,89.30
2022-08-19T07:19:54.149Z,89.58
2022-08-19T07:22:24.254Z,89.68
2022-08-19T07:24:52.168Z,89.95
2022-08-19T07:27:25.355Z,90.03
2022-08-19T07:29:55.966Z,89.80
2022-08-19T07:32:27.279Z,89.07
2022-08-19T07:34:53.939Z,87.61
2022-08-19T07:37:20.418Z,87.79
2022-08-19T07:39:47.064Z,85.77
2022-08-19T07:42:14.636Z,85.75
2022-08-19T07:44:42.514Z,87.40
2022-08-19T07:47:47.654Z,88.58
2022-08-19T07:50:07.887Z,90.11
2022-08-19T07:52:35.307Z,89.86
2022-08-19T07:55:04.672Z,90.06
2022-08-19T07:57:31.231Z,89.91
2022-08-19T07:59:57.767Z,88.82
2022-08-19T08:02:24.250Z,87.42
2022-08-19T08:05:09.186Z,86.07
2022-08-19T08:07:54.023Z,86.36
2022-08-19T08:10:21.480Z,85.95
2022-08-19T08:13:08.533Z,85.94
2022-08-19T08:15:42.767Z,86.77
2022-08-19T08:18:11.240Z,87.19
2022-08-19T08:20:38.273Z,87.15
2022-08-19T08:23:23.469Z,86.95
2022-08-19T08:25:50.239Z,87.66
2022-08-19T08:28:18.180Z,87.92
2022-08-19T08:30:48.418Z,88.47
2022-08-19T08:33:32.780Z,88.37
2022-08-19T08:36:11.816Z,89.25
2022-08-19T08:38:40.508Z,89.15
2022-08-19T08:41:45.455Z,89.45
2022-08-19T08:44:22.036Z,89.13
2022-08-19T08:46:53.027Z,88.73
2022-08-19T08:49:47.833Z,89.04
2022-08-19T08:52:36.226Z,89.05
2022-08-19T08:55:13.525Z,87.88
2022-08-19T08:58:00.054Z,87.00
2022-08-19T09:00:31.232Z,87.21
2022-08-19T09:02:59.549Z,85.45
2022-08-19T09:05:48.599Z,82.44
2022-08-19T09:08:32.273Z,81.42
2022-08-19T09:10:58.802Z,79.04
2022-08-19T09:13:34.775Z,77.81
2022-08-19T09:16:13.217Z,77.82
2022-08-19T09:18:54.266Z,78.24
2022-08-19T09:21:30.298Z,77.96
2022-08-19T09:23:58.687Z,76.03
2022-08-19T09:26:29.805Z,74.91
2022-08-19T09:29:14.301Z,73.56
2022-08-19T09:31:41.229Z,70.75
2022-08-19T09:34:07.710Z,69.49
2022-08-19T09:36:48.096Z,65.28
2022-08-19T09:39:16.089Z,67.07
2022-08-19T09:41:47.685Z,69.62
2022-08-19T09:44:15.805Z,69.94
2022-08-19T09:46:42.415Z,68.30
2022-08-19T09:49:08.865Z,69.40
2022-08-19T09:51:35.403Z,69.35
2022-08-19T09:54:04.938Z,70.18
2022-08-19T09:56:32.682Z,72.05
2022-08-19T09:59:02.519Z,73.48
2022-08-19T10:01:31.426Z,73.25
2022-08-19T10:04:00.536Z,74.96
2022-08-19T10:06:45.256Z,75.96
2022-08-19T10:09:15.434Z,77.24
2022-08-19T10:11:52.238Z,75.82
2022-08-19T10:14:23.169Z,76.44
2022-08-19T10:16:50.358Z,74.91
2022-08-19T10:19:25.648Z,73.89
2022-08-19T10:21:53.839Z,75.98
2022-08-19T10:24:21.638Z,75.27
2022-08-19T10:26:58.760Z,76.13
2022-08-19T10:29:32.064Z,75.53
2022-08-19T10:32:05.502Z,73.23
2022-08-19T10:34:48.393Z,69.91
2022-08-19T10:37:23.874Z,66.15
2022-08-19T10:39:55.487Z,62.58
2022-08-19T10:42:22.327Z,63.05
2022-08-19T10:44:49.031Z,63.48
2022-08-19T10:47:25.573Z,64.89
2022-08-19T10:50:13.562Z,65.97
2022-08-19T10:52:49.689Z,64.18
2022-08-19T10:55:38.159Z,66.87
2022-08-19T10:58:04.847Z,66.01
2022-08-19T11:00:32.642Z,67.35
2022-08-19T11:02:59.281Z,67.36
2022-08-19T11:05:25.832Z,66.63
2022-08-19T11:07:52.993Z,66.93
2022-08-19T11:10:21.871Z,67.31
2022-08-19T11:12:49.154Z,67.66
2022-08-19T11:15:16.025Z,68.58
2022-08-19T11:17:44.517Z,68.90
2022-08-19T11:20:13.228Z,67.83
2022-08-19T11:22:41.865Z,65.38
2022-08-19T11:25:10.861Z,64.54
2022-08-19T11:27:45.439Z,63.76
2022-08-19T11:30:14.220Z,64.47
2022-08-19T11:32:47.097Z,64.02
2022-08-19T11:35:17.104Z,64.69
2022-08-19T11:37:43.651Z,64.30
2022-08-19T11:40:10.908Z,63.72
2022-08-19T11:43:00.349Z,62.95
2022-08-19T11:45:29.011Z,61.58
2022-08-19T11:47:56.159Z,60.85
2022-08-19T11:50:24.461Z,60.67
2022-08-19T11:52:55.038Z,60.61
2022-08-19T11:55:21.595Z,61.37
2022-08-19T11:57:48.132Z,61.46
2022-08-19T12:00:15.123Z,60.74
2022-08-19T12:02:41.796Z,60.66
2022-08-19T12:05:12.256Z,59.04
2022-08-19T12:07:39.609Z,59.86
2022-08-19T12:10:06.597Z,60.89
2022-08-19T12:12:34.924Z,60.24
2022-08-19T12:15:01.409Z,62.44
2022-08-19T12:17:28.076Z,62.91
2022-08-19T12:19:55.088Z,61.34
2022-08-19T12:22:22.319Z,61.82
2022-08-19T12:24:51.665Z,62.36
2022-08-19T12:27:23.913Z,62.19
2022-08-19T12:30:06.505Z,60.79
2022-08-19T12:32:33.121Z,61.24
2022-08-19T12:34:59.612Z,61.57
2022-08-19T12:37:26.262Z,63.00
2022-08-19T12:39:52.914Z,63.08
2022-08-19T12:42:19.723Z,63.17
2022-08-19T12:44:46.515Z,62.87
2022-08-19T12:47:15.367Z,62.43
2022-08-19T12:49:52.027Z,62.91
2022-08-19T12:52:23.523Z,61.36
2022-08-19T12:54:54.671Z,61.38
2022-08-19T12:57:23.206Z,62.49
2022-08-19T12:59:56.844Z,61.58
2022-08-19T13:02:23.574Z,62.35
2022-08-19T13:04:50.018Z,62.67
2022-08-19T13:07:16.483Z,62.09
2022-08-19T13:09:43.599Z,63.02
2022-08-19T13:12:13.879Z,63.66
2022-08-19T13:14:41.396Z,65.44
2022-08-19T13:17:09.220Z,66.80
2022-08-19T13:19:37.734Z,64.48
2022-08-19T13:22:04.302Z,64.17
2022-08-19T13:24:34.134Z,63.03
2022-08-19T13:27:01.772Z,62.37
2022-08-19T13:29:47.072Z,62.34
2022-08-19T13:32:31.893Z,61.60
2022-08-19T13:34:58.570Z,59.34
2022-08-19T13:37:42.081Z,60.29
2022-08-19T13:40:13.765Z,59.71
2022-08-19T13:42:40.884Z,59.67
2022-08-19T13:45:08.819Z,60.12
2022-08-19T13:47:36.390Z,60.48
2022-08-19T13:50:06.264Z,60.66
2022-08-19T13:52:32.702Z,60.28
2022-08-19T13:54:59.582Z,59.84
2022-08-19T13:57:26.042Z,59.19
2022-08-19T13:59:52.537Z,58.86
2022-08-19T14:02:19.883Z,57.85
2022-08-19T14:04:46.332Z,58.69
2022-08-19T14:07:12.797Z,57.85
2022-08-19T14:09:39.268Z,55.00
2022-08-19T14:12:05.972Z,56.68
2022-08-19T14:14:32.726Z,58.38
2022-08-19T14:16:59.359Z,59.43
2022-08-19T14:19:25.810Z,59.87
2022-08-19T14:21:58.511Z,59.79
2022-08-19T14:24:25.459Z,60.01
2022-08-19T14:26:51.998Z,59.49
2022-08-19T14:29:18.534Z,59.20
2022-08-19T14:31:45.266Z,60.05
2022-08-19T14:34:13.644Z,61.95
2022-08-19T14:36:40.115Z,62.33
2022-08-19T14:39:06.613Z,62.36
2022-08-19T14:41:33.666Z,61.79
2022-08-19T14:47:46.808Z,62.66
2022-08-19T14:50:17.745Z,62.78
2022-08-19T14:56:31.759Z,62.63
2022-08-19T14:59:01.276Z,64.45
2022-08-19T15:01:28.654Z,64.31
2022-08-19T15:03:55.718Z,65.89
2022-08-19T15:06:24.282Z,67.11
2022-08-19T15:08:52.610Z,67.40
2022-08-19T15:11:22.311Z,67.56
2022-08-19T15:13:49.107Z,68.48
2022-08-19T15:16:18.169Z,69.33
2022-08-19T15:18:46.397Z,69.41
2022-08-19T15:21:15.278Z,70.89
2022-08-19T15:23:42.300Z,74.16
2022-08-19T15:26:14.379Z,76.19
2022-08-19T15:28:43.143Z,75.72
2022-08-19T15:31:09.638Z,78.31
2022-08-19T15:33:51.977Z,80.11
2022-08-19T15:36:18.888Z,82.73
2022-08-19T15:38:46.494Z,86.13
2022-08-19T15:41:23.866Z,87.38
2022-08-19T15:44:04.357Z,91.47
2022-08-19T15:46:33.024Z,92.71
2022-08-19T15:49:00.579Z,95.78
2022-08-19T15:51:30.470Z,96.13
2022-08-19T15:53:57.494Z,95.63
2022-08-19T15:56:27.166Z,96.54
2022-08-19T15:59:12.742Z,96.90
2022-08-19T16:01:57.708Z,96.94
2022-08-19T16:04:43.034Z,98.41
2022-08-19T16:07:10.257Z,98.53
2022-08-19T16:09:36.756Z,99.26
2022-08-19T16:12:05.862Z,98.27
2022-08-19T16:14:35.266Z,99.38
2022-08-19T16:17:02.385Z,100.00
2022-08-19T16:19:28.905Z,100.00
2022-08-19T16:21:56.854Z,100.00
2022-08-19T16:24:25.650Z,100.00
2022-08-19T16:26:52.324Z,100.00
2022-08-19T16:29:33.808Z,100.00
2022-08-19T16:32:07.531Z,100.00
2022-08-19T16:34:34.573Z,100.00
2022-08-19T16:37:01.250Z,100.00
2022-08-19T16:39:27.813Z,100.00
2022-08-19T16:41:54.274Z,100.00
2022-08-19T16:44:21.389Z,100.00
2022-08-19T16:46:58.454Z,100.00
2022-08-19T16:49:52.465Z,100.00
2022-08-19T16:52:17.315Z,100.00
2022-08-19T16:54:44.607Z,100.00
2022-08-19T16:57:12.340Z,100.00
2022-08-19T16:59:48.552Z,100.00
2022-08-19T17:02:22.101Z,100.00
2022-08-19T17:04:57.252Z,100.00
2022-08-19T17:07:25.776Z,100.00
2022-08-19T17:09:52.415Z,100.00
2022-08-19T17:12:18.854Z,100.00
2022-08-19T17:14:46.090Z,100.00
2022-08-19T17:17:13.412Z,100.00
2022-08-19T17:19:44.590Z,100.00
2022-08-19T17:22:13.101Z,100.00
2022-08-19T17:24:40.902Z,100.00
2022-08-19T17:27:07.652Z,100.00
2022-08-19T17:29:34.289Z,100.00
2022-08-19T17:32:02.120Z,100.00
2022-08-19T17:34:28.583Z,100.00
2022-08-19T17:36:56.710Z,100.00
2022-08-19T17:39:23.344Z,100.00
2022-08-19T17:41:50.391Z,100.00
2022-08-19T17:44:17.454Z,100.00
2022-08-19T17:46:46.626Z,100.00
2022-08-19T17:49:13.268Z,100.00
2022-08-19T17:51:43.908Z,100.00
2022-08-19T17:54:18.708Z,100.00
2022-08-19T17:56:46.347Z,100.00
2022-08-19T17:59:14.130Z,100.00
2022-08-19T18:01:51.199Z,100.00
2022-08-19T18:04:21.630Z,100.00
2022-08-19T18:06:53.656Z,100.00
2022-08-19T18:09:35.722Z,100.00
2022-08-19T18:12:10.899Z,100.00
2022-08-19T18:14:39.153Z,100.00
2022-08-19T18:17:09.994Z,100.00
2022-08-19T18:19:42.108Z,100.00
2022-08-19T18:22:20.234Z,100.00
2022-08-19T18:24:46.966Z,100.00
2022-08-19T18:27:14.054Z,100.00
2022-08-19T18:29:40.543Z,100.00
2022-08-19T18:32:16.179Z,100.00
2022-08-19T18:34:43.947Z,100.00
2022-08-19T18:37:11.907Z,100.00
2022-08-19T18:39:57.385Z,100.00
2022-08-19T18:42:42.657Z,100.00
2022-08-19T18:45:28.337Z,100.00
2022-08-19T18:48:26.951Z,100.00
2022-08-19T18:50:54.725Z,100.00
2022-08-19T18:53:21.217Z,100.00
2022-08-19T18:55:51.960Z,100.00
2022-08-19T18:58:18.479Z,100.00
2022-08-19T19:00:44.964Z,100.00
2022-08-19T19:03:11.695Z,100.00
2022-08-19T19:05:39.873Z,100.00
2022-08-19T19:08:07.239Z,100.00
2022-08-19T19:10:35.458Z,100.00
2022-08-19T19:13:02.337Z,100.00
2022-08-19T19:15:29.446Z,100.00
2022-08-19T19:17:56.075Z,100.00
2022-08-19T19:20:36.625Z,100.00
2022-08-19T19:23:04.147Z,100.00
2022-08-19T19:25:49.593Z,100.00
2022-08-19T19:28:17.304Z,100.00
2022-08-19T19:30:43.874Z,100.00
2022-08-19T19:33:10.359Z,100.00
2022-08-19T19:35:36.847Z,100.00
2022-08-19T19:38:03.319Z,100.00
2022-08-19T19:40:29.844Z,100.00
2022-08-19T19:42:56.361Z,100.00
2022-08-19T19:45:23.333Z,100.00
2022-08-19T19:47:50.092Z,100.00
2022-08-19T19:50:17.952Z,100.00
2022-08-19T19:52:46.119Z,100.00
2022-08-19T19:55:18.160Z,100.00
2022-08-19T19:57:46.615Z,100.00
2022-08-19T20:00:16.322Z,100.00
2022-08-19T20:02:49.842Z,100.00
2022-08-19T20:05:17.376Z,100.00
2022-08-19T20:08:02.269Z,100.00
2022-08-19T20:10:28.745Z,100.00
2022-08-19T20:12:56.772Z,100.00
2022-08-19T20:15:24.136Z,100.00
2022-08-19T20:17:51.116Z,100.00
2022-08-19T20:20:19.127Z,100.00
2022-08-19T20:22:47.372Z,100.00
2022-08-19T20:25:16.190Z,100.00
2022-08-19T20:27:43.461Z,100.00
2022-08-19T20:30:19.120Z,100.00
2022-08-19T20:32:46.907Z,100.00
2022-08-19T20:35:15.513Z,100.00
2022-08-19T20:37:42.040Z,100.00
2022-08-19T20:40:10.411Z,100.00
2022-08-19T20:42:40.441Z,100.00
2022-08-19T20:45:32.411Z,100.00
2022-08-19T20:48:02.814Z,100.00
2022-08-19T20:50:30.845Z,100.00
2022-08-19T20:52:57.914Z,100.00
2022-08-19T20:55:26.520Z,100.00
2022-08-19T20:57:53.642Z,100.00
2022-08-19T21:00:20.432Z,100.00
2022-08-19T21:02:46.991Z,100.00
2022-08-19T21:05:14.781Z,100.00
2022-08-19T21:07:41.258Z,100.00
2022-08-19T21:10:08.077Z,100.00
2022-08-19T21:12:34.800Z,100.00
2022-08-19T21:15:01.288Z,100.00
2022-08-19T21:17:27.767Z,100.00
2022-08-19T21:19:54.336Z,100.00
2022-08-19T21:22:20.818Z,100.00
2022-08-19T21:24:47.284Z,100.00
2022-08-19T21:27:13.785Z,100.00
2022-08-19T21:29:42.109Z,100.00
2022-08-19T21:32:11.107Z,100.00
2022-08-19T21:34:41.374Z,100.00
2022-08-19T21:37:11.646Z,100.00
2022-08-19T21:39:51.768Z,100.00
2022-08-19T21:42:18.278Z,100.00
2022-08-19T21:44:46.008Z,100.00
2022-08-19T21:47:12.919Z,100.00
2022-08-19T21:49:39.560Z,100.00
2022-08-19T21:52:06.625Z,100.00
2022-08-19T21:54:38.281Z,100.00
2022-08-19T21:57:09.969Z,100.00
2022-08-19T21:59:37.987Z,100.00
2022-08-19T22:02:18.983Z,100.00
2022-08-19T22:04:46.529Z,100.00
2022-08-19T22:07:14.269Z,100.00
2022-08-19T22:09:42.221Z,100.00
2022-08-19T22:12:11.455Z,100.00
2022-08-19T22:14:39.125Z,100.00
2022-08-19T22:17:06.114Z,100.00
2022-08-19T22:19:32.590Z,100.00
2022-08-19T22:21:59.071Z,100.00
2022-08-19T22:24:25.611Z,100.00
2022-08-19T22:26:52.164Z,100.00
2022-08-19T22:29:18.746Z,100.00
2022-08-19T22:31:54.418Z,100.00
2022-08-19T22:34:24.978Z,100.00
2022-08-19T22:36:51.510Z,100.00
2022-08-19T22:39:17.973Z,100.00
2022-08-19T22:41:44.409Z,100.00
2022-08-19T22:44:11.396Z,100.00
2022-08-19T22:46:38.399Z,100.00
2022-08-19T22:49:04.906Z,100.00
2022-08-19T22:51:49.807Z,100.00
2022-08-19T22:54:16.497Z,100.00
2022-08-19T22:56:43.507Z,100.00
2022-08-19T22:59:10.623Z,100.00
2022-08-19T23:01:37.143Z,100.00
2022-08-19T23:04:04.487Z,100.00
2022-08-19T23:06:33.460Z,100.00
2022-08-19T23:09:00.842Z,100.00
2022-08-19T23:11:27.350Z,100.00
2022-08-19T23:13:53.821Z,100.00
2022-08-19T23:16:20.606Z,100.00
2022-08-19T23:18:48.111Z,100.00
2022-08-19T23:21:14.829Z,100.00
2022-08-19T23:23:41.445Z,100.00
2022-08-19T23:26:10.790Z,100.00
2022-08-19T23:28:57.358Z,100.00
2022-08-19T23:31:26.265Z,100.00
2022-08-19T23:33:53.390Z,100.00
2022-08-19T23:36:20.836Z,100.00
2022-08-19T23:38:49.488Z,100.00
2022-08-19T23:41:17.412Z,100.00
2022-08-19T23:43:44.518Z,100.00
2022-08-19T23:46:13.018Z,100.00
2022-08-19T23:48:40.800Z,100.00
2022-08-19T23:51:11.112Z,100.00
2022-08-19T23:53:41.907Z,100.00
2022-08-19T23:56:10.503Z,100.00
2022-08-19T23:58:38.175Z,100.00
